Reading, Pennsylvania
Current Conditions -  °F | °C
As of 4:54 AM on Thursday 27 Nov 2014 (Local Time) from KRDG Reporting Station
Light Snow Light Snow  
Wind Chill: 31°   Ceiling: 7500
Heat Index: 35°   Visibility: 9mi
Dew Point: 29°   Wind: 5mph
Humidity: 78%   Direction: 350°N
Pressure: 29.96"   Gusts: NA
Location:  40.34°N, 75.93°W
Report Text: KRDG 270954Z 35004KT 9SM -SN OVC075 02/M02 A2996 RMK AO2 UPE11SNB22 SLP153 P0001 T00171017
Loading
Personal Weather Stations






























Interactive Weather Map New forecast layout! Learn more

10-Day Weather Forecast

Advertisements
Track Severe Weather on mobile